KSUN/SUN METAR and TAF weather

Enter ICAO airport designator
Station Type Date Time Source
KSUN METAR 2021/10/20 06:55 UTC NOAA

KSUN 200655Z AUTO 00000KT 10SM CLR 05/01 A3014 RMK AO2


Station Type Date Time Source
KSUN Decoded METAR 2021/10/20 06:55 UTC NOAA

Hailey, Friedman Memorial Airport, ID, United States (KSUN) 43-30N 114-18W
Oct 20, 2021 - 02:55 AM EDT / 2021.10.20 0655 UTC
Wind: Calm:0
Visibility: 10 mile(s):0
Sky conditions: clear
Temperature: 41 F (5 C)
Dew Point: 33 F (1 C)
Relative Humidity: 75%
Pressure (altimeter): 30.14 in. Hg (1020 hPa)
ob: KSUN 200655Z AUTO 00000KT 10SM CLR 05/01 A3014 RMK AO2
cycle: 7

Station Type Date Time Source
KSUN TAF 2021/10/20 06:22 UTC NOAA

TAF KSUN 200520Z 2006/2112 31008KT P6SM SCT200
FM201800 15007KT P6SM FEW090 SCT200
FM202100 22008KT P6SM SCT090
FM210200 VRB06KT P6SM VCSH SCT040 BKN090
FM210600 31007KT P6SM SCT060 BKN100
AMD LTD TO CLD VIS AND WIND TIL 201300

Example: see airport list